East Kane, Pennsylvania
Current Conditions -  °F | °C
As of 12:53 AM on Thursday 27 Nov 2014 (Local Time) from KBFD Reporting Station
Overcast Overcast  
Wind Chill: 28°   Ceiling: 1400
Heat Index: 28°   Visibility: 10mi
Dew Point: 23°   Wind: 0mph
Humidity: 81%   Direction: NA
Pressure: 29.93"   Gusts: NA
Location:  41.6807°N, 78.6908°W
Report Text: KBFD 270553Z AUTO 00000KT 10SM OVC014 M02/M05 A2993 RMK AO2 SLP157 60000 T10221050 11017 21033 58003
Loading
Personal Weather Stations






























Interactive Weather Map New forecast layout! Learn more

10-Day Weather Forecast

Advertisements
Track Severe Weather on mobile